Minot, ND (58701)

11:18 AM CST on March 03, 2015 (GMT -0600)
Edgeview Estates | Change Station
CLOSE
Current Station
Personal Weather Station
Location: Minot, ND
Elevation: 1752 ft
Nearby Weather Stations
Active Advisory: Wind Advisory Active Notice: Public Information Statement

Elev 1752 ft 48.21 °N, 101.33 °W | Updated 10 seconds ago

Light Snow
Light Snow
3.4 °F
Feels Like -12 °F
N
11.0
Wind Variable Wind from NNW
Gusts 24.0 mph

Today
High -- | Low -- °F
--% Chance of Precip.
Yesterday
High -- | Low -- °F
Precip. -- in
7:22 AM 6:32 PM
Waxing Gibbous, 96% visible
Pressure 30.00 in
Visibility 3.0 miles
Clouds Overcast 1500 ft
Windchill -12 °F
Dew Point -5 °F
Humidity 67%
Rainfall 0.00 in
Snow Depth Not available.
UV 1 out of 12
Pollen .10 out of 12
Air Quality Not available.
Flu Activity Not available.
SPECI KMOT 031704Z 29022G32KT 3SM -SN OVC015 M16/M21 A3000 RMK AO2 PK WND 29032/1655 P0000 T11611211

More Conditions Fewer Conditions

Pressure 30.00 in
Visibility 3.0 miles
Clouds Overcast 1500 ft
Windchill -12 °F
Dew Point -5 °F
Humidity 67%
Rainfall 0.00 in
Snow Depth Not available.
UV 1 out of 12
Pollen .10 out of 12
Air Quality Not available.
Flu Activity Not available.
SPECI KMOT 031704Z 29022G32KT 3SM -SN OVC015 M16/M21 A3000 RMK AO2 PK WND 29032/1655 P0000 T11611211

More Conditions Fewer Conditions

10-Day Weather Forecast

Almanac

Astronomy

Mar. 03, 2015 Rise Set
Actual Time
Civil Twilight
Nautical Twilight
Astronomical Twilight
Moon
Length of Visible Light
Length of Day
Tomorrow will be .
, % of the Moon is Illuminated

Today's Extremes

State Highs State Lows

Community

WunderPhotos

Upload Photos

1,802,174 photos uploaded!

WunderBlogs® & News

Nearby

Air Quality

  Air Quality AQ Index Pollutant
Not available.

Snow Depth

Station Depth Elevation

Earthquake Activity

City Distance Mag. Time & Date
Minimum magnitude displayed is 2.5.

Coastal Water Temperatures

Place Temperature

Nearby Weather Stations

Wind Advisory
Statement as of 9:05 AM CST on March 03, 2015

... Wind Advisory now in effect until noon CST today...

* timing... through midday today.

* Winds... northwest sustained near 30 mph. Gusts to 40 mph.

* Impacts... difficult driving conditions for high profile
vehicles. Working on elevated structures will be hazardous.